createdAt,value
2023-02-06T00:00:47.485Z,27.30
2023-02-06T00:03:14.118Z,27.23
2023-02-06T00:05:40.704Z,27.48
2023-02-06T00:08:07.270Z,26.83
2023-02-06T00:10:33.891Z,24.15
2023-02-06T00:13:00.480Z,26.55
2023-02-06T00:15:27.206Z,24.88
2023-02-06T00:17:53.755Z,27.20
2023-02-06T00:20:20.325Z,27.38
2023-02-06T00:22:46.851Z,26.95
2023-02-06T00:25:13.360Z,26.92
2023-02-06T00:27:39.849Z,26.42
2023-02-06T00:30:06.860Z,26.67
2023-02-06T00:32:34.772Z,23.30
2023-02-06T00:35:01.334Z,25.17
2023-02-06T00:37:27.870Z,25.20
2023-02-06T00:39:54.382Z,23.65
2023-02-06T00:42:20.917Z,27.95
2023-02-06T00:44:47.438Z,26.50
2023-02-06T00:47:13.955Z,23.20
2023-02-06T00:49:40.468Z,25.83
2023-02-06T00:52:07.022Z,24.92
2023-02-06T00:54:33.590Z,21.50
2023-02-06T00:57:00.164Z,26.05
2023-02-06T00:59:26.692Z,22.00
2023-02-06T01:01:53.243Z,20.70
2023-02-06T01:04:19.781Z,23.00
2023-02-06T01:06:46.271Z,18.63
2023-02-06T01:09:12.838Z,22.52
2023-02-06T01:11:39.403Z,20.33
2023-02-06T01:14:05.918Z,23.00
2023-02-06T01:16:32.448Z,19.63
2023-02-06T01:18:58.969Z,20.58
2023-02-06T01:21:25.803Z,19.20
2023-02-06T01:23:54.637Z,21.33
2023-02-06T01:26:26.770Z,19.80
2023-02-06T01:28:54.260Z,16.63
2023-02-06T01:31:27.246Z,20.85
2023-02-06T01:33:55.398Z,19.63
2023-02-06T01:36:22.581Z,22.27
2023-02-06T01:38:51.859Z,17.75
2023-02-06T01:41:20.859Z,16.98
2023-02-06T01:44:08.241Z,17.75
2023-02-06T01:46:34.860Z,18.48
2023-02-06T01:49:02.199Z,19.05
2023-02-06T01:51:30.303Z,19.30
2023-02-06T01:54:02.239Z,16.67
2023-02-06T01:56:33.701Z,18.77
2023-02-06T01:59:03.015Z,18.27
2023-02-06T02:01:30.122Z,14.23
2023-02-06T02:04:08.493Z,17.70
2023-02-06T02:06:35.281Z,16.77
2023-02-06T02:09:03.827Z,17.33
2023-02-06T02:11:31.760Z,15.75
2023-02-06T02:13:58.643Z,15.68
2023-02-06T02:16:52.892Z,14.95
2023-02-06T02:20:02.119Z,15.93
2023-02-06T02:22:52.700Z,16.13
2023-02-06T02:25:34.764Z,15.82
2023-02-06T02:28:20.338Z,14.40
2023-02-06T02:31:05.568Z,15.40
2023-02-06T02:34:00.050Z,14.50
2023-02-06T02:36:34.603Z,12.30
2023-02-06T02:39:13.135Z,13.82
2023-02-06T02:42:11.929Z,15.07
2023-02-06T02:44:52.737Z,15.40
2023-02-06T02:47:23.831Z,13.65
2023-02-06T02:49:50.473Z,12.95
2023-02-06T02:52:18.915Z,13.63
2023-02-06T02:54:45.479Z,13.18
2023-02-06T02:57:17.794Z,14.07
2023-02-06T02:59:47.615Z,11.45
2023-02-06T03:02:28.797Z,13.32
2023-02-06T03:05:01.132Z,14.90
2023-02-06T03:07:37.722Z,12.88
2023-02-06T03:10:39.058Z,13.90
2023-02-06T03:13:18.319Z,12.18
2023-02-06T03:16:01.342Z,11.48
2023-02-06T03:18:34.660Z,10.82
2023-02-06T03:21:03.923Z,11.55
2023-02-06T03:23:33.610Z,11.30
2023-02-06T03:26:05.878Z,12.85
2023-02-06T03:28:35.902Z,10.20
2023-02-06T03:31:06.938Z,10.35
2023-02-06T03:33:40.056Z,11.00
2023-02-06T03:36:09.947Z,12.35
2023-02-06T03:38:36.932Z,11.32
2023-02-06T03:41:04.860Z,12.18
2023-02-06T03:43:32.258Z,11.77
2023-02-06T03:46:05.114Z,12.82
2023-02-06T03:48:39.761Z,10.43
2023-02-06T03:51:15.832Z,11.35
2023-02-06T03:53:44.770Z,12.48
2023-02-06T03:56:19.524Z,12.07
2023-02-06T03:58:46.029Z,9.75
2023-02-06T04:01:13.566Z,9.77
2023-02-06T04:03:40.107Z,8.27
2023-02-06T04:06:06.904Z,9.48
2023-02-06T04:08:33.440Z,8.65
2023-02-06T04:10:59.957Z,8.98
2023-02-06T04:13:26.455Z,12.02
2023-02-06T04:15:52.978Z,8.75
2023-02-06T04:18:19.497Z,11.20
2023-02-06T04:20:46.006Z,7.90
2023-02-06T04:23:12.549Z,10.77
2023-02-06T04:25:39.222Z,11.40
2023-02-06T04:28:06.047Z,10.35
2023-02-06T04:30:32.692Z,8.10
2023-02-06T04:32:59.195Z,8.18
2023-02-06T04:35:25.771Z,10.48
2023-02-06T04:37:52.566Z,7.90
2023-02-06T04:40:19.217Z,6.65
2023-02-06T04:42:46.285Z,8.60
2023-02-06T04:45:13.210Z,8.27
2023-02-06T04:47:40.063Z,8.13
2023-02-06T04:50:07.012Z,8.00
2023-02-06T04:52:33.626Z,6.30
2023-02-06T04:55:00.138Z,8.43
2023-02-06T04:57:26.903Z,6.50
2023-02-06T04:59:53.381Z,8.50
2023-02-06T05:02:19.908Z,8.45
2023-02-06T05:04:46.458Z,6.53
2023-02-06T05:07:13.097Z,8.45
2023-02-06T05:09:39.597Z,9.10
2023-02-06T05:12:06.146Z,7.85
2023-02-06T05:14:32.670Z,6.93
2023-02-06T05:16:59.233Z,9.07
2023-02-06T05:19:25.752Z,7.93
2023-02-06T05:21:52.271Z,5.50
2023-02-06T05:24:18.994Z,8.48
2023-02-06T05:26:46.492Z,8.82
2023-02-06T05:29:13.115Z,6.93
2023-02-06T05:31:40.350Z,6.43
2023-02-06T05:34:06.982Z,5.95
2023-02-06T05:36:33.508Z,6.63
2023-02-06T05:39:00.016Z,8.73
2023-02-06T05:41:26.515Z,7.30
2023-02-06T05:43:53.031Z,9.32
2023-02-06T05:46:19.619Z,7.03
2023-02-06T05:48:46.195Z,7.63
2023-02-06T05:51:12.682Z,7.70
2023-02-06T05:53:39.306Z,7.88
2023-02-06T05:56:06.029Z,7.55
2023-02-06T05:58:33.384Z,6.72
2023-02-06T06:00:59.965Z,7.50
2023-02-06T06:03:26.555Z,6.95
2023-02-06T06:05:54.036Z,8.60
2023-02-06T06:08:21.144Z,7.55
2023-02-06T06:10:50.676Z,6.13
2023-02-06T06:13:17.507Z,8.18
2023-02-06T06:15:44.052Z,7.25
2023-02-06T06:18:11.091Z,6.30
2023-02-06T06:20:37.602Z,10.00
2023-02-06T06:23:04.143Z,7.60
2023-02-06T06:25:30.691Z,7.43
2023-02-06T06:27:57.270Z,6.05
2023-02-06T06:30:23.975Z,6.60
2023-02-06T06:32:50.508Z,6.72
2023-02-06T06:35:17.108Z,6.00
2023-02-06T06:37:43.621Z,6.45
2023-02-06T06:40:10.948Z,7.18
2023-02-06T06:42:37.496Z,5.93
2023-02-06T06:45:04.486Z,8.23
2023-02-06T06:47:31.021Z,7.55
2023-02-06T06:49:57.607Z,8.73
2023-02-06T06:52:25.561Z,8.43
2023-02-06T06:54:53.260Z,6.82
2023-02-06T06:57:20.739Z,5.45
2023-02-06T06:59:47.299Z,6.57
2023-02-06T07:02:13.827Z,6.95
2023-02-06T07:04:40.380Z,6.90
2023-02-06T07:07:07.286Z,6.75
2023-02-06T07:09:33.859Z,8.65
2023-02-06T07:12:00.400Z,11.82
2023-02-06T07:14:26.863Z,12.63
2023-02-06T07:16:53.602Z,11.82
2023-02-06T07:19:21.289Z,7.97
2023-02-06T07:21:47.936Z,7.10
2023-02-06T07:24:14.627Z,10.43
2023-02-06T07:26:41.561Z,13.27
2023-02-06T07:29:08.093Z,11.63
2023-02-06T07:31:34.659Z,14.55
2023-02-06T07:34:02.303Z,12.27
2023-02-06T07:36:28.897Z,11.23
2023-02-06T07:38:55.419Z,10.15
2023-02-06T07:41:21.963Z,11.38
2023-02-06T07:43:48.549Z,12.80
2023-02-06T07:46:15.220Z,14.60
2023-02-06T07:48:42.464Z,13.50
2023-02-06T07:51:10.016Z,11.77
2023-02-06T07:53:36.701Z,10.00
2023-02-06T07:58:40.425Z,12.50
2023-02-06T08:01:07.721Z,10.95
2023-02-06T08:03:34.677Z,10.93
2023-02-06T08:06:01.339Z,14.23
2023-02-06T08:08:27.845Z,12.75
2023-02-06T08:10:54.376Z,13.15
2023-02-06T08:13:20.868Z,13.35
2023-02-06T08:15:47.375Z,10.27
2023-02-06T08:18:13.888Z,8.60
2023-02-06T08:20:40.672Z,10.07
2023-02-06T08:23:08.073Z,12.30
2023-02-06T08:25:35.067Z,11.55
2023-02-06T08:28:02.049Z,11.90
2023-02-06T08:30:28.910Z,12.13
2023-02-06T08:32:55.734Z,12.05
2023-02-06T08:35:22.296Z,10.70
2023-02-06T08:37:48.806Z,8.85
2023-02-06T08:40:15.343Z,8.65
2023-02-06T08:42:41.950Z,9.65
2023-02-06T08:45:09.070Z,9.85
2023-02-06T08:47:35.642Z,7.30
2023-02-06T08:50:03.538Z,10.63
2023-02-06T08:52:30.416Z,11.98
2023-02-06T08:54:56.947Z,10.23
2023-02-06T08:57:23.592Z,8.48
2023-02-06T08:59:50.694Z,10.13
2023-02-06T09:02:17.239Z,10.38
2023-02-06T09:04:43.798Z,9.52
2023-02-06T09:07:10.338Z,8.82
2023-02-06T09:09:36.959Z,8.48
2023-02-06T09:12:04.029Z,8.63
2023-02-06T09:14:31.304Z,10.75
2023-02-06T09:16:58.349Z,8.90
2023-02-06T09:19:25.832Z,8.02
2023-02-06T09:21:52.464Z,8.32
2023-02-06T09:24:19.286Z,7.15
2023-02-06T09:26:59.042Z,12.00
2023-02-06T09:29:28.907Z,9.55
2023-02-06T09:31:57.419Z,8.20
2023-02-06T09:34:25.846Z,9.70
2023-02-06T09:36:54.825Z,8.63
2023-02-06T09:39:21.444Z,8.85
2023-02-06T09:41:52.211Z,7.85
2023-02-06T09:44:21.541Z,7.20
2023-02-06T09:46:53.855Z,6.07
2023-02-06T09:49:35.926Z,7.50
2023-02-06T09:52:31.199Z,7.55
2023-02-06T09:55:35.798Z,7.75
2023-02-06T09:58:20.370Z,5.15
2023-02-06T10:00:53.473Z,8.63
2023-02-06T10:03:47.521Z,7.72
2023-02-06T10:06:32.914Z,8.48
2023-02-06T10:09:12.149Z,10.20
2023-02-06T10:11:45.773Z,10.25
2023-02-06T10:14:26.093Z,8.00
2023-02-06T10:17:01.325Z,9.38
2023-02-06T10:19:43.875Z,7.72
2023-02-06T10:22:16.895Z,6.38
2023-02-06T10:25:01.599Z,9.52
2023-02-06T10:27:28.103Z,9.63
2023-02-06T10:29:54.717Z,7.05
2023-02-06T10:32:42.764Z,9.23
2023-02-06T10:35:50.138Z,7.38
2023-02-06T10:38:33.968Z,6.60
2023-02-06T10:41:15.269Z,5.20
2023-02-06T10:43:50.907Z,5.53
2023-02-06T10:46:48.374Z,5.45
2023-02-06T10:49:25.609Z,5.95
2023-02-06T10:51:58.825Z,3.85
2023-02-06T10:54:31.601Z,7.85
2023-02-06T10:56:59.684Z,5.45
2023-02-06T10:59:31.486Z,6.63
2023-02-06T11:02:04.129Z,5.70
2023-02-06T11:04:41.162Z,7.88
2023-02-06T11:07:16.427Z,5.55
2023-02-06T11:09:43.662Z,6.20
2023-02-06T11:12:39.513Z,6.10
2023-02-06T11:15:36.300Z,4.95
2023-02-06T11:18:06.147Z,5.65
2023-02-06T11:20:36.805Z,6.90
2023-02-06T11:23:24.965Z,4.93
2023-02-06T11:26:14.363Z,4.53
2023-02-06T11:28:56.236Z,5.40
2023-02-06T11:31:44.768Z,5.13
2023-02-06T11:34:42.957Z,8.48
2023-02-06T11:37:48.323Z,5.53
2023-02-06T11:40:35.195Z,5.75
2023-02-06T11:43:22.834Z,7.57
2023-02-06T11:45:52.672Z,4.35
2023-02-06T11:48:54.504Z,5.60
2023-02-06T11:51:22.643Z,7.93
2023-02-06T11:53:59.563Z,7.97
2023-02-06T11:56:27.047Z,6.78
2023-02-06T11:59:19.045Z,4.78
2023-02-06T12:01:48.038Z,5.47
2023-02-06T12:04:24.553Z,6.60
2023-02-06T12:07:16.186Z,6.13
2023-02-06T12:09:43.399Z,8.40
2023-02-06T12:12:25.536Z,6.75
2023-02-06T12:14:59.098Z,6.40
2023-02-06T12:17:36.467Z,7.80
2023-02-06T12:20:26.441Z,4.07
2023-02-06T12:23:22.800Z,8.13
2023-02-06T12:25:52.982Z,6.82
2023-02-06T12:28:44.407Z,5.50
2023-02-06T12:31:47.933Z,7.93
2023-02-06T12:34:21.946Z,5.80
2023-02-06T12:37:21.343Z,6.18
2023-02-06T12:39:48.900Z,10.23
2023-02-06T12:42:29.551Z,4.18
2023-02-06T12:45:10.663Z,6.28
2023-02-06T12:48:02.276Z,7.03
2023-02-06T12:50:40.528Z,4.57
2023-02-06T12:53:32.808Z,4.60
2023-02-06T12:56:12.714Z,5.47
2023-02-06T12:58:42.322Z,3.25
2023-02-06T13:01:34.317Z,4.88
2023-02-06T13:04:26.776Z,8.43
2023-02-06T13:07:09.670Z,8.40
2023-02-06T13:09:46.802Z,3.22
2023-02-06T13:12:15.134Z,4.25
2023-02-06T13:14:51.352Z,3.50
2023-02-06T13:17:24.511Z,5.15
2023-02-06T13:20:07.137Z,5.07
2023-02-06T13:22:45.856Z,5.00
2023-02-06T13:25:30.580Z,4.07
2023-02-06T13:28:01.269Z,3.75
2023-02-06T13:30:30.958Z,4.82
2023-02-06T13:33:15.024Z,7.82
2023-02-06T13:38:24.362Z,5.93
2023-02-06T13:41:12.999Z,6.10
2023-02-06T13:43:41.883Z,3.53
2023-02-06T13:46:15.466Z,4.00
2023-02-06T13:48:57.139Z,3.72
2023-02-06T13:51:26.586Z,6.93
2023-02-06T13:54:17.832Z,3.60
2023-02-06T13:56:44.406Z,4.57
2023-02-06T13:59:19.030Z,5.95
2023-02-06T14:01:45.797Z,4.43
2023-02-06T14:04:20.045Z,4.30
2023-02-06T14:07:08.919Z,4.97
2023-02-06T14:09:44.410Z,3.95
2023-02-06T14:12:45.030Z,4.47
2023-02-06T14:15:15.727Z,2.85
2023-02-06T14:18:05.584Z,4.85
2023-02-06T14:20:59.339Z,2.95
2023-02-06T14:24:03.087Z,3.85
2023-02-06T14:26:51.193Z,3.07
2023-02-06T14:29:44.408Z,3.00
2023-02-06T14:32:23.767Z,5.63
2023-02-06T14:35:05.097Z,6.78
2023-02-06T14:37:40.618Z,4.38
2023-02-06T14:40:29.705Z,4.03
2023-02-06T14:43:04.524Z,4.15
2023-02-06T14:45:41.771Z,2.33
2023-02-06T14:48:22.398Z,3.88
2023-02-06T14:50:54.453Z,4.43
2023-02-06T14:56:04.817Z,5.18
2023-02-06T14:58:31.418Z,3.45
2023-02-06T15:01:20.008Z,5.80
2023-02-06T15:03:49.039Z,4.30
2023-02-06T15:06:37.709Z,5.32
2023-02-06T15:09:05.707Z,4.43
2023-02-06T15:11:33.152Z,2.85
2023-02-06T15:14:18.732Z,4.78
2023-02-06T15:16:51.083Z,6.05
2023-02-06T15:19:37.179Z,5.00
2023-02-06T15:22:14.182Z,3.22
2023-02-06T15:24:58.964Z,3.40
2023-02-06T15:27:32.083Z,4.15
2023-02-06T15:30:00.241Z,6.88
2023-02-06T15:32:37.846Z,3.60
2023-02-06T15:35:38.066Z,3.65
2023-02-06T15:38:16.044Z,3.88
2023-02-06T15:40:46.352Z,5.18
2023-02-06T15:43:20.013Z,3.47
2023-02-06T15:48:25.274Z,5.57
2023-02-06T15:51:00.833Z,5.00
2023-02-06T15:53:31.200Z,2.63
2023-02-06T15:55:58.557Z,5.97
2023-02-06T15:58:26.260Z,3.58
2023-02-06T16:00:55.679Z,2.60
2023-02-06T16:03:27.359Z,5.05
2023-02-06T16:05:56.563Z,5.03
2023-02-06T16:08:28.419Z,1.80
2023-02-06T16:11:00.976Z,7.63
2023-02-06T16:13:30.605Z,2.03
2023-02-06T16:16:21.553Z,5.03
2023-02-06T16:18:52.035Z,3.35
2023-02-06T16:21:23.373Z,5.47
2023-02-06T16:24:02.518Z,4.45
2023-02-06T16:26:31.564Z,2.88
2023-02-06T16:29:03.573Z,6.13
2023-02-06T16:31:34.164Z,4.18
2023-02-06T16:34:03.279Z,2.83
2023-02-06T16:36:32.310Z,4.93
2023-02-06T16:39:04.199Z,2.53
2023-02-06T16:41:33.770Z,3.83
2023-02-06T16:44:01.717Z,4.22
2023-02-06T16:46:29.217Z,5.43
2023-02-06T16:48:56.466Z,4.35
2023-02-06T16:51:26.146Z,4.95
2023-02-06T16:53:52.964Z,5.18
2023-02-06T16:56:21.201Z,2.67
2023-02-06T16:58:48.431Z,4.55
2023-02-06T17:01:26.548Z,4.25
2023-02-06T17:03:53.422Z,5.10
2023-02-06T17:06:26.988Z,4.60
2023-02-06T17:08:57.896Z,3.97
2023-02-06T17:11:24.942Z,6.10
2023-02-06T17:13:51.780Z,4.55
2023-02-06T17:16:21.720Z,6.30
2023-02-06T17:18:49.634Z,4.78
2023-02-06T17:21:19.080Z,3.70
2023-02-06T17:23:46.484Z,6.95
2023-02-06T17:26:15.825Z,6.25
2023-02-06T17:28:42.392Z,5.60
2023-02-06T17:31:09.599Z,4.25
2023-02-06T17:33:36.664Z,4.28
2023-02-06T17:36:07.502Z,3.50
2023-02-06T17:38:34.343Z,4.45
2023-02-06T17:41:00.924Z,8.75
2023-02-06T17:43:28.059Z,9.13
2023-02-06T17:45:54.583Z,10.73
2023-02-06T17:48:21.346Z,11.00
2023-02-06T17:50:47.891Z,17.40
2023-02-06T17:53:14.819Z,17.20
2023-02-06T17:55:41.741Z,15.13
2023-02-06T17:58:08.389Z,20.40
2023-02-06T18:00:35.170Z,19.98
2023-02-06T18:03:02.126Z,18.83
2023-02-06T18:05:28.724Z,18.58
2023-02-06T18:07:55.308Z,19.70
2023-02-06T18:10:24.222Z,18.25
2023-02-06T18:12:50.929Z,20.08
2023-02-06T18:15:17.612Z,18.50
2023-02-06T18:17:44.237Z,24.65
2023-02-06T18:20:12.178Z,19.67
2023-02-06T18:22:41.254Z,31.05
2023-02-06T18:25:13.749Z,23.58
2023-02-06T18:27:41.499Z,24.40
2023-02-06T18:30:08.956Z,21.48
2023-02-06T18:32:38.270Z,20.42
2023-02-06T18:35:06.286Z,20.55
2023-02-06T18:37:32.894Z,19.65
2023-02-06T18:39:59.428Z,21.77
2023-02-06T18:42:44.839Z,17.52
2023-02-06T18:45:11.544Z,21.02
2023-02-06T18:47:39.065Z,19.08
2023-02-06T18:50:06.004Z,17.63
2023-02-06T18:52:32.892Z,22.65
2023-02-06T18:54:59.466Z,17.25
2023-02-06T18:57:26.024Z,17.50
2023-02-06T18:59:52.560Z,24.60
2023-02-06T19:02:19.134Z,19.60
2023-02-06T19:04:45.733Z,17.92
2023-02-06T19:07:12.375Z,19.20
2023-02-06T19:09:39.057Z,16.92
2023-02-06T19:12:05.870Z,18.58
2023-02-06T19:14:32.578Z,19.60
2023-02-06T19:16:59.184Z,17.88
2023-02-06T19:19:25.852Z,17.98
2023-02-06T19:21:52.604Z,19.00
2023-02-06T19:24:20.302Z,15.73
2023-02-06T19:26:46.829Z,15.80
2023-02-06T19:29:33.643Z,17.02
2023-02-06T19:32:06.446Z,15.85
2023-02-06T19:34:36.188Z,15.95
2023-02-06T19:37:08.781Z,16.05
2023-02-06T19:39:37.000Z,19.05
2023-02-06T19:42:06.613Z,16.88
2023-02-06T19:44:34.190Z,15.30
2023-02-06T19:47:01.166Z,20.48
2023-02-06T19:49:28.551Z,15.30
2023-02-06T19:51:55.134Z,13.73
2023-02-06T19:54:21.740Z,15.15
2023-02-06T19:56:49.027Z,14.73
2023-02-06T19:59:22.122Z,15.02
2023-02-06T20:01:54.291Z,13.95
2023-02-06T20:04:24.650Z,13.98
2023-02-06T20:06:51.785Z,14.77
2023-02-06T20:09:20.530Z,13.60
2023-02-06T20:11:48.929Z,17.27
2023-02-06T20:14:16.374Z,17.63
2023-02-06T20:16:43.689Z,15.52
2023-02-06T20:19:18.312Z,14.38
2023-02-06T20:21:48.493Z,17.73
2023-02-06T20:24:20.637Z,17.77
2023-02-06T20:26:48.582Z,15.15
2023-02-06T20:29:32.820Z,13.95
2023-02-06T20:32:00.861Z,15.95
2023-02-06T20:34:27.915Z,14.90
2023-02-06T20:36:55.568Z,14.60
2023-02-06T20:39:22.184Z,15.20
2023-02-06T20:41:50.276Z,16.92
2023-02-06T20:44:18.190Z,14.07
2023-02-06T20:46:45.147Z,13.45
2023-02-06T20:49:17.323Z,14.27
2023-02-06T20:51:43.894Z,12.70
2023-02-06T20:54:11.591Z,13.65
2023-02-06T20:56:39.466Z,14.55
2023-02-06T20:59:06.503Z,13.02
2023-02-06T21:01:33.290Z,14.75
2023-02-06T21:04:03.203Z,15.35
2023-02-06T21:06:31.246Z,15.18
2023-02-06T21:09:00.161Z,15.40
2023-02-06T21:11:29.554Z,14.38
2023-02-06T21:13:58.936Z,14.68
2023-02-06T21:16:26.967Z,13.30
2023-02-06T21:18:54.522Z,15.27
2023-02-06T21:21:21.546Z,15.73
2023-02-06T21:23:48.422Z,15.48
2023-02-06T21:26:17.361Z,16.13
2023-02-06T21:28:45.186Z,12.70
2023-02-06T21:31:21.316Z,14.57
2023-02-06T21:33:49.240Z,13.25
2023-02-06T21:36:16.070Z,15.02
2023-02-06T21:38:43.150Z,16.20
2023-02-06T21:41:13.129Z,16.50
2023-02-06T21:43:40.052Z,15.07
2023-02-06T21:46:06.921Z,14.52
2023-02-06T21:48:34.565Z,14.75
2023-02-06T21:51:11.530Z,15.68
2023-02-06T21:53:38.541Z,12.90
2023-02-06T21:56:13.629Z,17.30
2023-02-06T21:58:40.202Z,13.25
2023-02-06T22:01:08.828Z,14.18
2023-02-06T22:03:36.073Z,13.70
2023-02-06T22:06:08.724Z,14.75
2023-02-06T22:08:36.749Z,15.50
2023-02-06T22:11:11.252Z,14.23
2023-02-06T22:13:37.739Z,14.18
2023-02-06T22:16:04.592Z,13.60
2023-02-06T22:18:31.122Z,12.23
2023-02-06T22:21:24.791Z,13.57
2023-02-06T22:23:52.230Z,13.23
2023-02-06T22:26:21.042Z,12.20
2023-02-06T22:28:47.992Z,13.48
2023-02-06T22:31:20.431Z,14.02
2023-02-06T22:33:46.973Z,13.20
2023-02-06T22:36:21.534Z,11.20
2023-02-06T22:38:52.723Z,12.80
2023-02-06T22:41:19.322Z,13.75
2023-02-06T22:43:48.562Z,11.10
2023-02-06T22:46:36.593Z,12.77
2023-02-06T22:49:05.369Z,10.95
2023-02-06T22:51:32.467Z,11.88
2023-02-06T22:53:59.289Z,11.13
2023-02-06T22:56:31.044Z,11.98
2023-02-06T22:59:02.312Z,13.13
2023-02-06T23:01:37.407Z,10.85
2023-02-06T23:04:06.534Z,11.13
2023-02-06T23:06:34.725Z,14.00
2023-02-06T23:09:02.642Z,13.13
2023-02-06T23:11:29.196Z,12.43
2023-02-06T23:13:58.474Z,12.50
2023-02-06T23:16:26.262Z,11.52
2023-02-06T23:18:53.113Z,11.52
2023-02-06T23:21:21.480Z,12.00
2023-02-06T23:23:48.682Z,12.00
2023-02-06T23:26:17.247Z,12.38
2023-02-06T23:28:43.739Z,10.05
2023-02-06T23:31:10.614Z,10.80
2023-02-06T23:33:37.755Z,10.77
2023-02-06T23:36:11.496Z,9.48
2023-02-06T23:41:17.598Z,8.18
2023-02-06T23:43:44.674Z,10.85
2023-02-06T23:46:12.592Z,11.13
2023-02-06T23:48:39.631Z,11.25
2023-02-06T23:51:06.637Z,9.93
2023-02-06T23:53:33.196Z,13.15
2023-02-06T23:55:59.879Z,10.18
2023-02-06T23:58:26.629Z,10.45
